sensor_id;sensor_type;location;lat;lon;timestamp;P1;durP1;ratioP1;P2;durP2;ratioP2
13651;SDS011;6899;51.546;6.912;2023-04-25T00:02:20;0.00;;;0.00;;
13651;SDS011;6899;51.546;6.912;2023-04-25T00:04:47;0.00;;;0.00;;
13651;SDS011;6899;51.546;6.912;2023-04-25T00:07:14;7.57;;;6.85;;
13651;SDS011;6899;51.546;6.912;2023-04-25T00:09:41;0.00;;;0.00;;
13651;SDS011;6899;51.546;6.912;2023-04-25T00:12:08;0.00;;;0.00;;
13651;SDS011;6899;51.546;6.912;2023-04-25T00:14:35;0.28;;;0.28;;
13651;SDS011;6899;51.546;6.912;2023-04-25T00:17:02;6.68;;;3.10;;
13651;SDS011;6899;51.546;6.912;2023-04-25T00:19:33;14.50;;;4.80;;
13651;SDS011;6899;51.546;6.912;2023-04-25T00:22:00;15.20;;;5.03;;
13651;SDS011;6899;51.546;6.912;2023-04-25T00:24:26;12.15;;;5.13;;
13651;SDS011;6899;51.546;6.912;2023-04-25T00:26:53;12.55;;;4.65;;
13651;SDS011;6899;51.546;6.912;2023-04-25T00:29:20;12.45;;;4.50;;
13651;SDS011;6899;51.546;6.912;2023-04-25T00:31:47;9.85;;;4.40;;
13651;SDS011;6899;51.546;6.912;2023-04-25T00:34:13;9.38;;;4.40;;
13651;SDS011;6899;51.546;6.912;2023-04-25T00:36:41;13.50;;;4.45;;
13651;SDS011;6899;51.546;6.912;2023-04-25T00:39:08;11.10;;;5.28;;
13651;SDS011;6899;51.546;6.912;2023-04-25T00:41:35;10.10;;;5.07;;
13651;SDS011;6899;51.546;6.912;2023-04-25T00:44:03;12.73;;;4.60;;
13651;SDS011;6899;51.546;6.912;2023-04-25T00:46:31;10.05;;;4.70;;
13651;SDS011;6899;51.546;6.912;2023-04-25T00:48:58;17.27;;;5.28;;
13651;SDS011;6899;51.546;6.912;2023-04-25T00:51:25;12.13;;;4.97;;
13651;SDS011;6899;51.546;6.912;2023-04-25T00:53:54;9.70;;;4.68;;
13651;SDS011;6899;51.546;6.912;2023-04-25T00:56:20;11.32;;;4.43;;
13651;SDS011;6899;51.546;6.912;2023-04-25T00:58:50;3.13;;;1.35;;
13651;SDS011;6899;51.546;6.912;2023-04-25T01:01:19;5.30;;;1.98;;
13651;SDS011;6899;51.546;6.912;2023-04-25T01:03:49;4.07;;;1.30;;
13651;SDS011;6899;51.546;6.912;2023-04-25T01:06:16;0.38;;;0.20;;
13651;SDS011;6899;51.546;6.912;2023-04-25T01:08:45;6.82;;;3.20;;
13651;SDS011;6899;51.546;6.912;2023-04-25T01:11:17;0.75;;;0.30;;
13651;SDS011;6899;51.546;6.912;2023-04-25T01:13:44;0.00;;;0.00;;
13651;SDS011;6899;51.546;6.912;2023-04-25T01:16:11;0.43;;;0.20;;
13651;SDS011;6899;51.546;6.912;2023-04-25T01:18:38;0.32;;;0.15;;
13651;SDS011;6899;51.546;6.912;2023-04-25T01:21:08;0.82;;;0.45;;
13651;SDS011;6899;51.546;6.912;2023-04-25T01:23:35;2.10;;;0.55;;
13651;SDS011;6899;51.546;6.912;2023-04-25T01:26:03;0.00;;;0.00;;
13651;SDS011;6899;51.546;6.912;2023-04-25T01:28:30;0.10;;;0.10;;
13651;SDS011;6899;51.546;6.912;2023-04-25T01:30:58;0.10;;;0.10;;
13651;SDS011;6899;51.546;6.912;2023-04-25T01:33:25;0.45;;;0.43;;
13651;SDS011;6899;51.546;6.912;2023-04-25T01:35:52;0.00;;;0.00;;
13651;SDS011;6899;51.546;6.912;2023-04-25T01:38:23;0.00;;;0.00;;
13651;SDS011;6899;51.546;6.912;2023-04-25T01:40:50;0.00;;;0.00;;
13651;SDS011;6899;51.546;6.912;2023-04-25T01:43:18;0.00;;;0.00;;
13651;SDS011;6899;51.546;6.912;2023-04-25T01:45:44;0.00;;;0.00;;
13651;SDS011;6899;51.546;6.912;2023-04-25T01:48:14;2.92;;;1.63;;
13651;SDS011;6899;51.546;6.912;2023-04-25T01:50:41;0.15;;;0.15;;
13651;SDS011;6899;51.546;6.912;2023-04-25T01:53:09;0.43;;;0.43;;
13651;SDS011;6899;51.546;6.912;2023-04-25T01:55:40;1.02;;;0.98;;
13651;SDS011;6899;51.546;6.912;2023-04-25T01:58:06;0.00;;;0.00;;
13651;SDS011;6899;51.546;6.912;2023-04-25T02:00:37;0.00;;;0.00;;
13651;SDS011;6899;51.546;6.912;2023-04-25T02:03:04;0.28;;;0.17;;
13651;SDS011;6899;51.546;6.912;2023-04-25T02:05:33;0.30;;;0.30;;
13651;SDS011;6899;51.546;6.912;2023-04-25T02:08:01;0.00;;;0.00;;
13651;SDS011;6899;51.546;6.912;2023-04-25T02:10:28;0.00;;;0.00;;
13651;SDS011;6899;51.546;6.912;2023-04-25T02:12:57;0.00;;;0.00;;
13651;SDS011;6899;51.546;6.912;2023-04-25T02:15:27;0.00;;;0.00;;
13651;SDS011;6899;51.546;6.912;2023-04-25T02:17:54;0.00;;;0.00;;
13651;SDS011;6899;51.546;6.912;2023-04-25T02:20:21;0.90;;;0.68;;
13651;SDS011;6899;51.546;6.912;2023-04-25T02:22:48;0.00;;;0.00;;
13651;SDS011;6899;51.546;6.912;2023-04-25T02:25:19;0.00;;;0.00;;
13651;SDS011;6899;51.546;6.912;2023-04-25T02:27:52;0.00;;;0.00;;
13651;SDS011;6899;51.546;6.912;2023-04-25T02:30:20;0.32;;;0.32;;
13651;SDS011;6899;51.546;6.912;2023-04-25T02:32:46;0.00;;;0.00;;
13651;SDS011;6899;51.546;6.912;2023-04-25T02:35:13;0.30;;;0.17;;
13651;SDS011;6899;51.546;6.912;2023-04-25T02:37:40;0.30;;;0.20;;
13651;SDS011;6899;51.546;6.912;2023-04-25T02:40:08;0.00;;;0.00;;
13651;SDS011;6899;51.546;6.912;2023-04-25T02:42:35;0.00;;;0.00;;
13651;SDS011;6899;51.546;6.912;2023-04-25T02:45:02;0.00;;;0.00;;
13651;SDS011;6899;51.546;6.912;2023-04-25T02:47:37;0.00;;;0.00;;
13651;SDS011;6899;51.546;6.912;2023-04-25T02:50:07;0.00;;;0.00;;
13651;SDS011;6899;51.546;6.912;2023-04-25T02:52:34;0.00;;;0.00;;
13651;SDS011;6899;51.546;6.912;2023-04-25T02:55:01;1.17;;;1.08;;
13651;SDS011;6899;51.546;6.912;2023-04-25T02:57:31;0.28;;;0.10;;
13651;SDS011;6899;51.546;6.912;2023-04-25T03:00:00;0.00;;;0.00;;
13651;SDS011;6899;51.546;6.912;2023-04-25T03:02:27;0.00;;;0.00;;
13651;SDS011;6899;51.546;6.912;2023-04-25T03:04:55;0.00;;;0.00;;
13651;SDS011;6899;51.546;6.912;2023-04-25T03:07:22;0.75;;;0.10;;
13651;SDS011;6899;51.546;6.912;2023-04-25T03:09:51;0.00;;;0.00;;
13651;SDS011;6899;51.546;6.912;2023-04-25T03:12:18;0.20;;;0.20;;
13651;SDS011;6899;51.546;6.912;2023-04-25T03:14:45;0.00;;;0.00;;
13651;SDS011;6899;51.546;6.912;2023-04-25T03:17:12;0.05;;;0.05;;
13651;SDS011;6899;51.546;6.912;2023-04-25T03:19:39;0.00;;;0.00;;
13651;SDS011;6899;51.546;6.912;2023-04-25T03:22:07;0.00;;;0.00;;
13651;SDS011;6899;51.546;6.912;2023-04-25T03:24:33;0.00;;;0.00;;
13651;SDS011;6899;51.546;6.912;2023-04-25T03:27:01;0.00;;;0.00;;
13651;SDS011;6899;51.546;6.912;2023-04-25T03:29:28;0.00;;;0.00;;
13651;SDS011;6899;51.546;6.912;2023-04-25T03:31:55;0.00;;;0.00;;
13651;SDS011;6899;51.546;6.912;2023-04-25T03:34:21;0.00;;;0.00;;
13651;SDS011;6899;51.546;6.912;2023-04-25T03:36:48;0.00;;;0.00;;
13651;SDS011;6899;51.546;6.912;2023-04-25T03:39:17;0.38;;;0.38;;
13651;SDS011;6899;51.546;6.912;2023-04-25T03:41:43;0.20;;;0.20;;
13651;SDS011;6899;51.546;6.912;2023-04-25T03:44:10;0.00;;;0.00;;
13651;SDS011;6899;51.546;6.912;2023-04-25T03:46:37;0.10;;;0.10;;
13651;SDS011;6899;51.546;6.912;2023-04-25T03:49:03;0.00;;;0.00;;
13651;SDS011;6899;51.546;6.912;2023-04-25T03:51:30;0.00;;;0.00;;
13651;SDS011;6899;51.546;6.912;2023-04-25T03:53:57;0.00;;;0.00;;
13651;SDS011;6899;51.546;6.912;2023-04-25T03:56:28;0.00;;;0.00;;
13651;SDS011;6899;51.546;6.912;2023-04-25T03:58:55;0.00;;;0.00;;
13651;SDS011;6899;51.546;6.912;2023-04-25T04:01:22;0.00;;;0.00;;
13651;SDS011;6899;51.546;6.912;2023-04-25T04:03:49;0.00;;;0.00;;
13651;SDS011;6899;51.546;6.912;2023-04-25T04:06:16;0.00;;;0.00;;
13651;SDS011;6899;51.546;6.912;2023-04-25T04:08:43;0.43;;;0.43;;
13651;SDS011;6899;51.546;6.912;2023-04-25T04:11:16;0.05;;;0.05;;
13651;SDS011;6899;51.546;6.912;2023-04-25T04:13:44;0.00;;;0.00;;
13651;SDS011;6899;51.546;6.912;2023-04-25T04:16:11;0.00;;;0.00;;
13651;SDS011;6899;51.546;6.912;2023-04-25T04:18:38;0.00;;;0.00;;
13651;SDS011;6899;51.546;6.912;2023-04-25T04:21:05;3.72;;;3.40;;
13651;SDS011;6899;51.546;6.912;2023-04-25T04:23:31;0.00;;;0.00;;
13651;SDS011;6899;51.546;6.912;2023-04-25T04:25:58;0.00;;;0.00;;
13651;SDS011;6899;51.546;6.912;2023-04-25T04:28:25;0.00;;;0.00;;
13651;SDS011;6899;51.546;6.912;2023-04-25T04:30:54;0.00;;;0.00;;
13651;SDS011;6899;51.546;6.912;2023-04-25T04:33:21;0.00;;;0.00;;
13651;SDS011;6899;51.546;6.912;2023-04-25T04:35:48;0.32;;;0.32;;
13651;SDS011;6899;51.546;6.912;2023-04-25T04:38:17;0.00;;;0.00;;
13651;SDS011;6899;51.546;6.912;2023-04-25T04:40:44;0.00;;;0.00;;
13651;SDS011;6899;51.546;6.912;2023-04-25T04:43:12;9.57;;;3.25;;
13651;SDS011;6899;51.546;6.912;2023-04-25T04:45:42;15.45;;;6.18;;
13651;SDS011;6899;51.546;6.912;2023-04-25T04:48:10;15.18;;;5.80;;
13651;SDS011;6899;51.546;6.912;2023-04-25T04:50:39;12.65;;;5.30;;
13651;SDS011;6899;51.546;6.912;2023-04-25T04:53:06;15.13;;;6.03;;
13651;SDS011;6899;51.546;6.912;2023-04-25T04:55:33;14.95;;;6.00;;
13651;SDS011;6899;51.546;6.912;2023-04-25T04:58:00;18.90;;;5.32;;
13651;SDS011;6899;51.546;6.912;2023-04-25T05:00:26;16.20;;;6.13;;
13651;SDS011;6899;51.546;6.912;2023-04-25T05:02:54;18.63;;;5.47;;
13651;SDS011;6899;51.546;6.912;2023-04-25T05:05:22;20.42;;;5.47;;
13651;SDS011;6899;51.546;6.912;2023-04-25T05:07:49;15.32;;;6.32;;
13651;SDS011;6899;51.546;6.912;2023-04-25T05:10:16;18.40;;;5.88;;
13651;SDS011;6899;51.546;6.912;2023-04-25T05:12:43;15.07;;;5.25;;
13651;SDS011;6899;51.546;6.912;2023-04-25T05:15:10;12.60;;;6.22;;
13651;SDS011;6899;51.546;6.912;2023-04-25T05:17:46;14.73;;;5.90;;
13651;SDS011;6899;51.546;6.912;2023-04-25T05:20:13;19.88;;;6.07;;
13651;SDS011;6899;51.546;6.912;2023-04-25T05:22:41;20.55;;;5.93;;
13651;SDS011;6899;51.546;6.912;2023-04-25T05:25:08;16.02;;;5.50;;
13651;SDS011;6899;51.546;6.912;2023-04-25T05:27:35;17.60;;;6.28;;
13651;SDS011;6899;51.546;6.912;2023-04-25T05:30:05;17.88;;;5.40;;
13651;SDS011;6899;51.546;6.912;2023-04-25T05:32:33;18.10;;;5.43;;
13651;SDS011;6899;51.546;6.912;2023-04-25T05:35:00;16.55;;;5.60;;
13651;SDS011;6899;51.546;6.912;2023-04-25T05:37:27;14.20;;;5.07;;
13651;SDS011;6899;51.546;6.912;2023-04-25T05:39:56;19.65;;;6.20;;
13651;SDS011;6899;51.546;6.912;2023-04-25T05:42:23;16.08;;;5.30;;
13651;SDS011;6899;51.546;6.912;2023-04-25T05:44:50;13.40;;;5.60;;
13651;SDS011;6899;51.546;6.912;2023-04-25T05:47:17;10.23;;;5.25;;
13651;SDS011;6899;51.546;6.912;2023-04-25T05:49:43;15.55;;;6.07;;
13651;SDS011;6899;51.546;6.912;2023-04-25T05:52:10;14.77;;;5.22;;
13651;SDS011;6899;51.546;6.912;2023-04-25T05:54:37;17.95;;;5.90;;
13651;SDS011;6899;51.546;6.912;2023-04-25T05:57:05;16.00;;;5.03;;
13651;SDS011;6899;51.546;6.912;2023-04-25T05:59:32;10.02;;;4.57;;
13651;SDS011;6899;51.546;6.912;2023-04-25T06:01:59;10.05;;;4.93;;
13651;SDS011;6899;51.546;6.912;2023-04-25T06:04:25;19.85;;;5.95;;
13651;SDS011;6899;51.546;6.912;2023-04-25T06:06:52;16.65;;;5.72;;
13651;SDS011;6899;51.546;6.912;2023-04-25T06:09:19;11.32;;;4.97;;
13651;SDS011;6899;51.546;6.912;2023-04-25T06:11:46;13.52;;;4.38;;
13651;SDS011;6899;51.546;6.912;2023-04-25T06:14:14;12.30;;;4.55;;
13651;SDS011;6899;51.546;6.912;2023-04-25T06:16:41;11.93;;;3.85;;
13651;SDS011;6899;51.546;6.912;2023-04-25T06:19:07;8.77;;;3.85;;
13651;SDS011;6899;51.546;6.912;2023-04-25T06:21:34;13.70;;;4.25;;
13651;SDS011;6899;51.546;6.912;2023-04-25T06:24:04;12.25;;;3.65;;
13651;SDS011;6899;51.546;6.912;2023-04-25T06:26:31;12.30;;;4.22;;
13651;SDS011;6899;51.546;6.912;2023-04-25T06:28:58;10.68;;;3.70;;
13651;SDS011;6899;51.546;6.912;2023-04-25T06:31:26;13.45;;;5.22;;
13651;SDS011;6899;51.546;6.912;2023-04-25T06:33:53;10.52;;;3.60;;
13651;SDS011;6899;51.546;6.912;2023-04-25T06:36:23;12.05;;;3.60;;
13651;SDS011;6899;51.546;6.912;2023-04-25T06:38:51;12.10;;;3.95;;
13651;SDS011;6899;51.546;6.912;2023-04-25T06:41:17;11.13;;;4.00;;
13651;SDS011;6899;51.546;6.912;2023-04-25T06:43:44;17.85;;;4.65;;
13651;SDS011;6899;51.546;6.912;2023-04-25T06:46:11;7.68;;;3.97;;
13651;SDS011;6899;51.546;6.912;2023-04-25T06:48:39;10.35;;;3.70;;
13651;SDS011;6899;51.546;6.912;2023-04-25T06:51:06;10.10;;;3.08;;
13651;SDS011;6899;51.546;6.912;2023-04-25T06:53:33;7.47;;;3.35;;
13651;SDS011;6899;51.546;6.912;2023-04-25T06:56:00;9.45;;;3.65;;
13651;SDS011;6899;51.546;6.912;2023-04-25T06:58:26;10.50;;;3.22;;
13651;SDS011;6899;51.546;6.912;2023-04-25T07:00:53;6.30;;;3.30;;
13651;SDS011;6899;51.546;6.912;2023-04-25T07:03:20;7.13;;;3.65;;
13651;SDS011;6899;51.546;6.912;2023-04-25T07:05:48;8.82;;;2.95;;
13651;SDS011;6899;51.546;6.912;2023-04-25T07:08:15;7.28;;;2.67;;
13651;SDS011;6899;51.546;6.912;2023-04-25T07:10:41;6.43;;;2.72;;
13651;SDS011;6899;51.546;6.912;2023-04-25T07:13:08;4.95;;;2.30;;
13651;SDS011;6899;51.546;6.912;2023-04-25T07:15:35;6.70;;;2.67;;
13651;SDS011;6899;51.546;6.912;2023-04-25T07:18:02;10.77;;;2.80;;
13651;SDS011;6899;51.546;6.912;2023-04-25T07:20:29;6.07;;;2.42;;
13651;SDS011;6899;51.546;6.912;2023-04-25T07:23:00;9.30;;;2.40;;
13651;SDS011;6899;51.546;6.912;2023-04-25T07:25:26;7.93;;;2.53;;
13651;SDS011;6899;51.546;6.912;2023-04-25T07:27:53;8.32;;;2.50;;
13651;SDS011;6899;51.546;6.912;2023-04-25T07:30:20;10.63;;;2.63;;
13651;SDS011;6899;51.546;6.912;2023-04-25T07:32:47;6.65;;;2.53;;
13651;SDS011;6899;51.546;6.912;2023-04-25T07:35:15;6.53;;;2.10;;
13651;SDS011;6899;51.546;6.912;2023-04-25T07:37:42;9.15;;;2.95;;
13651;SDS011;6899;51.546;6.912;2023-04-25T07:40:10;7.68;;;2.65;;
13651;SDS011;6899;51.546;6.912;2023-04-25T07:42:37;7.75;;;2.55;;
13651;SDS011;6899;51.546;6.912;2023-04-25T07:45:05;8.02;;;2.85;;
13651;SDS011;6899;51.546;6.912;2023-04-25T07:47:32;10.10;;;2.00;;
13651;SDS011;6899;51.546;6.912;2023-04-25T07:49:59;5.60;;;2.47;;
13651;SDS011;6899;51.546;6.912;2023-04-25T07:52:25;8.10;;;2.30;;
13651;SDS011;6899;51.546;6.912;2023-04-25T07:54:52;5.85;;;1.83;;
13651;SDS011;6899;51.546;6.912;2023-04-25T07:57:20;5.70;;;2.00;;
13651;SDS011;6899;51.546;6.912;2023-04-25T07:59:47;8.68;;;2.33;;
13651;SDS011;6899;51.546;6.912;2023-04-25T08:02:23;7.88;;;2.50;;
13651;SDS011;6899;51.546;6.912;2023-04-25T08:04:51;11.15;;;2.38;;
13651;SDS011;6899;51.546;6.912;2023-04-25T08:07:17;10.25;;;2.50;;
13651;SDS011;6899;51.546;6.912;2023-04-25T08:09:48;10.15;;;2.78;;
13651;SDS011;6899;51.546;6.912;2023-04-25T08:12:14;6.60;;;2.05;;
13651;SDS011;6899;51.546;6.912;2023-04-25T08:14:52;8.27;;;2.53;;
13651;SDS011;6899;51.546;6.912;2023-04-25T08:17:19;7.40;;;2.40;;
13651;SDS011;6899;51.546;6.912;2023-04-25T08:19:45;8.07;;;2.60;;
13651;SDS011;6899;51.546;6.912;2023-04-25T08:22:12;4.63;;;2.00;;
13651;SDS011;6899;51.546;6.912;2023-04-25T08:24:39;13.32;;;2.60;;
13651;SDS011;6899;51.546;6.912;2023-04-25T08:27:06;8.23;;;2.60;;
13651;SDS011;6899;51.546;6.912;2023-04-25T08:29:34;8.45;;;2.58;;
13651;SDS011;6899;51.546;6.912;2023-04-25T08:32:01;5.93;;;1.98;;
13651;SDS011;6899;51.546;6.912;2023-04-25T08:34:28;6.90;;;2.15;;
13651;SDS011;6899;51.546;6.912;2023-04-25T08:36:55;8.38;;;2.00;;
13651;SDS011;6899;51.546;6.912;2023-04-25T08:39:21;6.68;;;2.00;;
13651;SDS011;6899;51.546;6.912;2023-04-25T08:41:48;11.27;;;2.13;;
13651;SDS011;6899;51.546;6.912;2023-04-25T08:44:15;5.50;;;2.33;;
13651;SDS011;6899;51.546;6.912;2023-04-25T08:46:44;15.65;;;6.10;;
13651;SDS011;6899;51.546;6.912;2023-04-25T08:49:17;5.00;;;1.90;;
13651;SDS011;6899;51.546;6.912;2023-04-25T08:51:44;6.50;;;2.00;;
13651;SDS011;6899;51.546;6.912;2023-04-25T08:54:13;6.13;;;2.45;;
13651;SDS011;6899;51.546;6.912;2023-04-25T08:56:41;7.22;;;2.00;;
13651;SDS011;6899;51.546;6.912;2023-04-25T08:59:10;4.05;;;1.80;;
13651;SDS011;6899;51.546;6.912;2023-04-25T09:01:37;10.07;;;2.30;;
13651;SDS011;6899;51.546;6.912;2023-04-25T09:04:06;9.18;;;1.98;;
13651;SDS011;6899;51.546;6.912;2023-04-25T09:06:35;7.60;;;2.00;;
13651;SDS011;6899;51.546;6.912;2023-04-25T09:09:02;7.35;;;1.92;;
13651;SDS011;6899;51.546;6.912;2023-04-25T09:11:31;6.43;;;1.88;;
13651;SDS011;6899;51.546;6.912;2023-04-25T09:14:10;5.63;;;1.60;;
13651;SDS011;6899;51.546;6.912;2023-04-25T09:19:26;0.00;;;0.00;;
13651;SDS011;6899;51.546;6.912;2023-04-25T09:21:53;0.98;;;0.38;;
13651;SDS011;6899;51.546;6.912;2023-04-25T09:24:28;2.35;;;0.28;;
13651;SDS011;6899;51.546;6.912;2023-04-25T09:26:57;0.00;;;0.00;;
13651;SDS011;6899;51.546;6.912;2023-04-25T09:29:28;0.00;;;0.00;;
13651;SDS011;6899;51.546;6.912;2023-04-25T09:32:10;0.10;;;0.10;;
13651;SDS011;6899;51.546;6.912;2023-04-25T09:34:42;0.00;;;0.00;;
13651;SDS011;6899;51.546;6.912;2023-04-25T09:37:13;0.10;;;0.10;;
13651;SDS011;6899;51.546;6.912;2023-04-25T09:39:44;0.00;;;0.00;;
13651;SDS011;6899;51.546;6.912;2023-04-25T09:42:11;0.00;;;0.00;;
13651;SDS011;6899;51.546;6.912;2023-04-25T09:44:41;0.00;;;0.00;;
13651;SDS011;6899;51.546;6.912;2023-04-25T09:47:09;0.32;;;0.20;;
13651;SDS011;6899;51.546;6.912;2023-04-25T09:49:38;0.17;;;0.17;;
13651;SDS011;6899;51.546;6.912;2023-04-25T09:52:08;0.00;;;0.00;;
13651;SDS011;6899;51.546;6.912;2023-04-25T09:54:39;0.00;;;0.00;;
13651;SDS011;6899;51.546;6.912;2023-04-25T09:57:10;0.00;;;0.00;;
13651;SDS011;6899;51.546;6.912;2023-04-25T09:59:38;22.70;;;1.08;;
13651;SDS011;6899;51.546;6.912;2023-04-25T10:02:06;0.00;;;0.00;;
13651;SDS011;6899;51.546;6.912;2023-04-25T10:04:35;0.20;;;0.20;;
13651;SDS011;6899;51.546;6.912;2023-04-25T10:07:02;1.45;;;0.73;;
13651;SDS011;6899;51.546;6.912;2023-04-25T10:09:32;0.17;;;0.08;;
13651;SDS011;6899;51.546;6.912;2023-04-25T10:12:02;0.00;;;0.00;;
13651;SDS011;6899;51.546;6.912;2023-04-25T10:14:29;0.03;;;0.03;;
13651;SDS011;6899;51.546;6.912;2023-04-25T10:16:57;0.00;;;0.00;;
13651;SDS011;6899;51.546;6.912;2023-04-25T10:19:24;0.00;;;0.00;;
13651;SDS011;6899;51.546;6.912;2023-04-25T10:21:52;0.00;;;0.00;;
13651;SDS011;6899;51.546;6.912;2023-04-25T10:24:21;0.00;;;0.00;;
13651;SDS011;6899;51.546;6.912;2023-04-25T10:26:50;0.00;;;0.00;;
13651;SDS011;6899;51.546;6.912;2023-04-25T10:29:24;0.00;;;0.00;;
13651;SDS011;6899;51.546;6.912;2023-04-25T10:31:51;0.80;;;0.63;;
13651;SDS011;6899;51.546;6.912;2023-04-25T10:34:19;0.65;;;0.65;;
13651;SDS011;6899;51.546;6.912;2023-04-25T10:36:50;0.10;;;0.05;;
13651;SDS011;6899;51.546;6.912;2023-04-25T10:39:21;0.17;;;0.17;;
13651;SDS011;6899;51.546;6.912;2023-04-25T10:41:55;4.63;;;0.38;;
13651;SDS011;6899;51.546;6.912;2023-04-25T10:44:23;0.00;;;0.00;;
13651;SDS011;6899;51.546;6.912;2023-04-25T10:46:54;0.00;;;0.00;;
13651;SDS011;6899;51.546;6.912;2023-04-25T10:49:28;0.00;;;0.00;;
13651;SDS011;6899;51.546;6.912;2023-04-25T10:52:10;0.00;;;0.00;;
13651;SDS011;6899;51.546;6.912;2023-04-25T10:54:42;0.65;;;0.35;;
13651;SDS011;6899;51.546;6.912;2023-04-25T10:57:29;0.00;;;0.00;;
13651;SDS011;6899;51.546;6.912;2023-04-25T10:59:58;0.03;;;0.03;;
13651;SDS011;6899;51.546;6.912;2023-04-25T11:02:26;0.00;;;0.00;;
13651;SDS011;6899;51.546;6.912;2023-04-25T11:04:54;0.00;;;0.00;;
13651;SDS011;6899;51.546;6.912;2023-04-25T11:07:23;0.00;;;0.00;;
13651;SDS011;6899;51.546;6.912;2023-04-25T11:10:00;0.00;;;0.00;;
13651;SDS011;6899;51.546;6.912;2023-04-25T11:12:30;0.03;;;0.03;;
13651;SDS011;6899;51.546;6.912;2023-04-25T11:14:58;0.38;;;0.10;;
13651;SDS011;6899;51.546;6.912;2023-04-25T11:17:26;0.00;;;0.00;;
13651;SDS011;6899;51.546;6.912;2023-04-25T11:19:53;0.00;;;0.00;;
13651;SDS011;6899;51.546;6.912;2023-04-25T11:22:20;0.00;;;0.00;;
13651;SDS011;6899;51.546;6.912;2023-04-25T11:24:47;0.00;;;0.00;;
13651;SDS011;6899;51.546;6.912;2023-04-25T11:27:15;0.25;;;0.25;;
13651;SDS011;6899;51.546;6.912;2023-04-25T11:29:43;0.00;;;0.00;;
13651;SDS011;6899;51.546;6.912;2023-04-25T11:32:12;0.00;;;0.00;;
13651;SDS011;6899;51.546;6.912;2023-04-25T11:34:42;0.00;;;0.00;;
13651;SDS011;6899;51.546;6.912;2023-04-25T11:37:10;0.00;;;0.00;;
13651;SDS011;6899;51.546;6.912;2023-04-25T11:39:37;0.10;;;0.10;;
13651;SDS011;6899;51.546;6.912;2023-04-25T11:42:04;0.93;;;0.35;;
13651;SDS011;6899;51.546;6.912;2023-04-25T11:44:31;0.00;;;0.00;;
13651;SDS011;6899;51.546;6.912;2023-04-25T11:47:00;0.93;;;0.80;;
13651;SDS011;6899;51.546;6.912;2023-04-25T11:49:30;0.20;;;0.20;;
13651;SDS011;6899;51.546;6.912;2023-04-25T11:51:57;1.40;;;0.47;;
13651;SDS011;6899;51.546;6.912;2023-04-25T11:54:23;0.00;;;0.00;;
13651;SDS011;6899;51.546;6.912;2023-04-25T11:56:51;1.95;;;1.08;;
13651;SDS011;6899;51.546;6.912;2023-04-25T11:59:17;0.00;;;0.00;;
13651;SDS011;6899;51.546;6.912;2023-04-25T12:01:50;0.08;;;0.08;;
13651;SDS011;6899;51.546;6.912;2023-04-25T12:04:18;0.00;;;0.00;;
13651;SDS011;6899;51.546;6.912;2023-04-25T12:06:46;0.00;;;0.00;;
13651;SDS011;6899;51.546;6.912;2023-04-25T12:09:15;0.30;;;0.10;;
13651;SDS011;6899;51.546;6.912;2023-04-25T12:11:47;0.38;;;0.38;;
13651;SDS011;6899;51.546;6.912;2023-04-25T12:14:20;0.00;;;0.00;;
13651;SDS011;6899;51.546;6.912;2023-04-25T12:16:49;0.30;;;0.22;;
13651;SDS011;6899;51.546;6.912;2023-04-25T12:19:19;3.00;;;0.93;;
13651;SDS011;6899;51.546;6.912;2023-04-25T12:21:46;0.00;;;0.00;;
13651;SDS011;6899;51.546;6.912;2023-04-25T12:24:14;0.00;;;0.00;;
13651;SDS011;6899;51.546;6.912;2023-04-25T12:26:48;0.28;;;0.28;;
13651;SDS011;6899;51.546;6.912;2023-04-25T12:29:17;0.15;;;0.15;;
13651;SDS011;6899;51.546;6.912;2023-04-25T12:31:45;0.00;;;0.00;;
13651;SDS011;6899;51.546;6.912;2023-04-25T12:34:11;0.00;;;0.00;;
13651;SDS011;6899;51.546;6.912;2023-04-25T12:36:40;0.00;;;0.00;;
13651;SDS011;6899;51.546;6.912;2023-04-25T12:39:06;0.00;;;0.00;;
13651;SDS011;6899;51.546;6.912;2023-04-25T12:41:33;0.03;;;0.03;;
13651;SDS011;6899;51.546;6.912;2023-04-25T12:44:00;0.00;;;0.00;;
13651;SDS011;6899;51.546;6.912;2023-04-25T12:46:27;0.00;;;0.00;;
13651;SDS011;6899;51.546;6.912;2023-04-25T12:48:54;0.22;;;0.22;;
13651;SDS011;6899;51.546;6.912;2023-04-25T12:51:23;0.00;;;0.00;;
13651;SDS011;6899;51.546;6.912;2023-04-25T12:53:52;0.00;;;0.00;;
13651;SDS011;6899;51.546;6.912;2023-04-25T12:56:19;0.00;;;0.00;;
13651;SDS011;6899;51.546;6.912;2023-04-25T12:58:45;0.00;;;0.00;;
13651;SDS011;6899;51.546;6.912;2023-04-25T13:01:13;0.00;;;0.00;;
13651;SDS011;6899;51.546;6.912;2023-04-25T13:03:40;0.00;;;0.00;;
13651;SDS011;6899;51.546;6.912;2023-04-25T13:06:07;0.00;;;0.00;;
13651;SDS011;6899;51.546;6.912;2023-04-25T13:08:34;0.00;;;0.00;;
13651;SDS011;6899;51.546;6.912;2023-04-25T13:11:03;0.00;;;0.00;;
13651;SDS011;6899;51.546;6.912;2023-04-25T13:13:36;0.00;;;0.00;;
13651;SDS011;6899;51.546;6.912;2023-04-25T13:16:03;0.00;;;0.00;;
13651;SDS011;6899;51.546;6.912;2023-04-25T13:18:31;6.40;;;0.45;;
13651;SDS011;6899;51.546;6.912;2023-04-25T13:20:58;0.00;;;0.00;;
13651;SDS011;6899;51.546;6.912;2023-04-25T13:23:26;0.00;;;0.00;;
13651;SDS011;6899;51.546;6.912;2023-04-25T13:25:54;0.00;;;0.00;;
13651;SDS011;6899;51.546;6.912;2023-04-25T13:28:24;0.25;;;0.25;;
13651;SDS011;6899;51.546;6.912;2023-04-25T13:30:50;0.75;;;0.20;;
13651;SDS011;6899;51.546;6.912;2023-04-25T13:33:17;0.00;;;0.00;;
13651;SDS011;6899;51.546;6.912;2023-04-25T13:35:45;0.00;;;0.00;;
13651;SDS011;6899;51.546;6.912;2023-04-25T13:38:18;0.00;;;0.00;;
13651;SDS011;6899;51.546;6.912;2023-04-25T13:40:45;2.47;;;0.28;;
13651;SDS011;6899;51.546;6.912;2023-04-25T13:43:12;0.00;;;0.00;;
13651;SDS011;6899;51.546;6.912;2023-04-25T13:45:40;1.05;;;0.32;;
13651;SDS011;6899;51.546;6.912;2023-04-25T13:48:07;0.00;;;0.00;;
13651;SDS011;6899;51.546;6.912;2023-04-25T13:50:34;0.00;;;0.00;;
13651;SDS011;6899;51.546;6.912;2023-04-25T13:53:00;0.00;;;0.00;;
13651;SDS011;6899;51.546;6.912;2023-04-25T13:55:27;0.00;;;0.00;;
13651;SDS011;6899;51.546;6.912;2023-04-25T13:57:55;0.03;;;0.03;;
13651;SDS011;6899;51.546;6.912;2023-04-25T14:00:21;0.00;;;0.00;;
13651;SDS011;6899;51.546;6.912;2023-04-25T14:02:50;0.00;;;0.00;;
13651;SDS011;6899;51.546;6.912;2023-04-25T14:05:16;4.85;;;1.55;;
13651;SDS011;6899;51.546;6.912;2023-04-25T14:07:43;0.00;;;0.00;;
13651;SDS011;6899;51.546;6.912;2023-04-25T14:10:10;0.00;;;0.00;;
13651;SDS011;6899;51.546;6.912;2023-04-25T14:12:37;0.08;;;0.08;;
13651;SDS011;6899;51.546;6.912;2023-04-25T14:15:04;0.20;;;0.00;;
13651;SDS011;6899;51.546;6.912;2023-04-25T14:17:32;0.00;;;0.00;;
13651;SDS011;6899;51.546;6.912;2023-04-25T14:20:00;1.48;;;0.63;;
13651;SDS011;6899;51.546;6.912;2023-04-25T14:22:26;0.75;;;0.17;;
13651;SDS011;6899;51.546;6.912;2023-04-25T14:24:56;0.00;;;0.00;;
13651;SDS011;6899;51.546;6.912;2023-04-25T14:27:23;0.00;;;0.00;;
13651;SDS011;6899;51.546;6.912;2023-04-25T14:29:50;1.70;;;0.57;;
13651;SDS011;6899;51.546;6.912;2023-04-25T14:32:16;2.30;;;0.30;;
13651;SDS011;6899;51.546;6.912;2023-04-25T14:34:43;0.00;;;0.00;;
13651;SDS011;6899;51.546;6.912;2023-04-25T14:37:11;0.00;;;0.00;;
13651;SDS011;6899;51.546;6.912;2023-04-25T14:39:38;0.00;;;0.00;;
13651;SDS011;6899;51.546;6.912;2023-04-25T14:42:05;0.00;;;0.00;;
13651;SDS011;6899;51.546;6.912;2023-04-25T14:44:32;0.15;;;0.10;;
13651;SDS011;6899;51.546;6.912;2023-04-25T14:46:58;0.00;;;0.00;;
13651;SDS011;6899;51.546;6.912;2023-04-25T14:49:25;0.10;;;0.10;;
13651;SDS011;6899;51.546;6.912;2023-04-25T14:51:53;0.00;;;0.00;;
13651;SDS011;6899;51.546;6.912;2023-04-25T14:54:24;0.00;;;0.00;;
13651;SDS011;6899;51.546;6.912;2023-04-25T14:56:54;0.00;;;0.00;;
13651;SDS011;6899;51.546;6.912;2023-04-25T14:59:21;0.00;;;0.00;;
13651;SDS011;6899;51.546;6.912;2023-04-25T15:01:48;0.20;;;0.20;;
13651;SDS011;6899;51.546;6.912;2023-04-25T15:04:16;0.10;;;0.10;;
13651;SDS011;6899;51.546;6.912;2023-04-25T15:06:43;0.00;;;0.00;;